createdAt,value
2018-07-16T00:00:24.770Z,73.46
2018-07-16T00:02:53.435Z,73.58
2018-07-16T00:05:22.147Z,74.47
2018-07-16T00:07:51.038Z,74.14
2018-07-16T00:10:19.763Z,74.12
2018-07-16T00:12:48.508Z,74.18
2018-07-16T00:15:17.273Z,74.02
2018-07-16T00:17:45.958Z,73.92
2018-07-16T00:20:14.615Z,74.10
2018-07-16T00:22:43.350Z,73.82
2018-07-16T00:25:12.018Z,73.54
2018-07-16T00:27:40.701Z,73.24
2018-07-16T00:30:09.394Z,73.35
2018-07-16T00:32:38.112Z,73.27
2018-07-16T00:35:06.797Z,73.46
2018-07-16T00:37:35.651Z,73.34
2018-07-16T00:40:04.376Z,73.56
2018-07-16T00:42:33.213Z,73.65
2018-07-16T00:45:01.919Z,73.63
2018-07-16T00:47:30.603Z,74.05
2018-07-16T00:49:59.304Z,73.91
2018-07-16T00:52:27.970Z,74.11
2018-07-16T00:54:56.632Z,74.33
2018-07-16T00:57:25.362Z,74.31
2018-07-16T00:59:54.139Z,74.23
2018-07-16T01:02:22.751Z,74.52
2018-07-16T01:04:51.463Z,75.10
2018-07-16T01:07:20.144Z,75.37
2018-07-16T01:09:48.955Z,75.42
2018-07-16T01:12:17.639Z,75.29
2018-07-16T01:14:46.483Z,75.49
2018-07-16T01:17:15.132Z,75.46
2018-07-16T01:19:43.829Z,75.57
2018-07-16T01:22:12.455Z,76.03
2018-07-16T01:24:41.194Z,76.79
2018-07-16T01:27:09.918Z,76.81
2018-07-16T01:29:39.877Z,77.26
2018-07-16T01:32:09.130Z,77.48
2018-07-16T01:34:38.360Z,77.67
2018-07-16T01:37:07.081Z,77.94
2018-07-16T01:39:35.753Z,78.36
2018-07-16T01:42:04.473Z,78.46
2018-07-16T01:44:33.126Z,79.37
2018-07-16T01:47:01.791Z,79.49
2018-07-16T01:49:30.435Z,80.33
2018-07-16T01:51:59.484Z,80.11
2018-07-16T01:54:28.193Z,80.10
2018-07-16T01:56:56.945Z,80.32
2018-07-16T01:59:26.078Z,80.27
2018-07-16T02:01:54.766Z,80.15
2018-07-16T02:04:23.429Z,80.04
2018-07-16T02:06:52.310Z,80.23
2018-07-16T02:09:21.004Z,80.09
2018-07-16T02:11:50.276Z,80.48
2018-07-16T02:14:18.931Z,80.40
2018-07-16T02:16:47.749Z,80.64
2018-07-16T02:19:16.472Z,80.96
2018-07-16T02:21:45.155Z,80.88
2018-07-16T02:24:13.997Z,81.25
2018-07-16T02:26:42.680Z,81.25
2018-07-16T02:29:12.381Z,81.51
2018-07-16T02:31:41.050Z,81.92
2018-07-16T02:34:09.761Z,81.70
2018-07-16T02:36:38.469Z,81.92
2018-07-16T02:39:07.175Z,82.18
2018-07-16T02:41:35.906Z,82.04
2018-07-16T02:44:04.583Z,82.22
2018-07-16T02:46:33.774Z,82.52
2018-07-16T02:49:02.468Z,82.34
2018-07-16T02:51:31.104Z,82.24
2018-07-16T02:53:59.813Z,82.09
2018-07-16T02:56:28.555Z,81.87
2018-07-16T02:58:57.141Z,81.51
2018-07-16T03:01:25.882Z,81.07
2018-07-16T03:03:54.634Z,80.45
2018-07-16T03:06:23.598Z,81.31
2018-07-16T03:08:52.518Z,81.41
2018-07-16T03:11:21.176Z,81.15
2018-07-16T03:13:50.303Z,81.55
2018-07-16T03:16:19.018Z,81.49
2018-07-16T03:18:47.705Z,80.59
2018-07-16T03:21:16.391Z,79.57
2018-07-16T03:23:45.092Z,80.50
2018-07-16T03:26:13.812Z,80.44
2018-07-16T03:28:42.769Z,80.54
2018-07-16T03:31:11.979Z,80.17
2018-07-16T03:33:40.608Z,81.03
2018-07-16T03:36:09.290Z,81.00
2018-07-16T03:38:37.950Z,79.49
2018-07-16T03:41:06.668Z,79.03
2018-07-16T03:43:35.351Z,79.48
2018-07-16T03:46:04.089Z,80.41
2018-07-16T03:48:32.823Z,80.41
2018-07-16T03:51:01.510Z,80.35
2018-07-16T03:53:30.216Z,79.25
2018-07-16T03:55:58.884Z,79.06
2018-07-16T03:58:27.595Z,80.14
2018-07-16T04:00:56.275Z,79.93
2018-07-16T04:03:25.033Z,79.94
2018-07-16T04:05:53.801Z,79.30
2018-07-16T04:08:22.487Z,79.87
2018-07-16T04:10:51.240Z,80.05
2018-07-16T04:13:19.908Z,80.09
2018-07-16T04:15:48.628Z,79.96
2018-07-16T04:18:19.464Z,79.40
2018-07-16T04:20:48.662Z,78.67
2018-07-16T04:23:17.718Z,79.29
2018-07-16T04:25:46.411Z,79.60
2018-07-16T04:28:15.099Z,79.54
2018-07-16T04:30:43.842Z,79.58
2018-07-16T04:33:12.518Z,79.99
2018-07-16T04:35:41.237Z,79.89
2018-07-16T04:38:09.957Z,80.04
2018-07-16T04:40:38.662Z,80.28
2018-07-16T04:43:07.356Z,80.19
2018-07-16T04:45:36.057Z,80.42
2018-07-16T04:48:04.746Z,79.42
2018-07-16T04:50:33.445Z,80.48
2018-07-16T04:53:02.113Z,83.47
2018-07-16T04:55:31.423Z,84.34
2018-07-16T04:58:00.126Z,84.50
2018-07-16T05:00:28.945Z,83.94
2018-07-16T05:02:57.680Z,83.05
2018-07-16T05:05:26.426Z,82.49
2018-07-16T05:07:55.176Z,82.51
2018-07-16T05:10:23.945Z,82.38
2018-07-16T05:12:52.680Z,81.99
2018-07-16T05:15:21.398Z,81.38
2018-07-16T05:17:50.073Z,81.38
2018-07-16T05:20:18.898Z,81.76
2018-07-16T05:22:47.579Z,81.01
2018-07-16T05:25:16.264Z,81.00
2018-07-16T05:27:44.948Z,80.93
2018-07-16T05:30:13.666Z,81.15
2018-07-16T05:32:45.378Z,80.75
2018-07-16T05:35:13.998Z,80.35
2018-07-16T05:37:42.705Z,79.72
2018-07-16T05:40:11.444Z,80.14
2018-07-16T05:42:40.162Z,79.40
2018-07-16T05:45:08.862Z,79.11
2018-07-16T05:47:37.553Z,78.78
2018-07-16T05:50:06.300Z,78.45
2018-07-16T05:52:34.984Z,77.80
2018-07-16T05:55:03.792Z,78.31
2018-07-16T05:57:32.460Z,79.41
2018-07-16T06:00:01.289Z,79.03
2018-07-16T06:02:30.025Z,78.85
2018-07-16T06:04:58.708Z,78.42
2018-07-16T06:07:27.428Z,78.19
2018-07-16T06:09:56.145Z,77.13
2018-07-16T06:12:24.901Z,77.58
2018-07-16T06:14:53.694Z,77.77
2018-07-16T06:17:22.569Z,77.79
2018-07-16T06:19:51.256Z,77.24
2018-07-16T06:22:20.043Z,76.66
2018-07-16T06:24:48.719Z,76.87
2018-07-16T06:27:17.428Z,77.06
2018-07-16T06:29:46.268Z,77.32
2018-07-16T06:32:15.037Z,77.26
2018-07-16T06:34:43.796Z,76.98
2018-07-16T06:37:12.457Z,77.55
2018-07-16T06:39:41.159Z,77.39
2018-07-16T06:42:09.944Z,77.43
2018-07-16T06:44:38.816Z,77.64
2018-07-16T06:47:07.529Z,75.90
2018-07-16T06:49:36.666Z,76.10
2018-07-16T06:52:05.383Z,75.40
2018-07-16T06:54:34.172Z,73.78
2018-07-16T06:57:02.989Z,74.31
2018-07-16T06:59:31.749Z,73.30
2018-07-16T07:02:00.440Z,72.44
2018-07-16T07:04:30.064Z,71.65
2018-07-16T07:06:58.734Z,71.58
2018-07-16T07:09:27.421Z,70.82
2018-07-16T07:11:56.165Z,70.12
2018-07-16T07:14:25.120Z,69.80
2018-07-16T07:16:54.382Z,70.44
2018-07-16T07:19:23.170Z,69.23
2018-07-16T07:21:52.126Z,68.65
2018-07-16T07:24:20.947Z,67.67
2018-07-16T07:26:49.660Z,67.07
2018-07-16T07:29:18.447Z,66.38
2018-07-16T07:31:47.800Z,65.42
2018-07-16T07:34:16.534Z,64.39
2018-07-16T07:36:45.383Z,64.08
2018-07-16T07:39:14.096Z,64.25
2018-07-16T07:41:42.902Z,64.21
2018-07-16T07:44:11.613Z,64.61
2018-07-16T07:46:40.325Z,65.77
2018-07-16T07:49:09.116Z,64.38
2018-07-16T07:51:37.983Z,62.90
2018-07-16T07:54:07.144Z,63.09
2018-07-16T07:56:35.936Z,62.93
2018-07-16T07:59:04.877Z,62.51
2018-07-16T08:01:37.466Z,63.68
2018-07-16T08:04:06.271Z,62.59
2018-07-16T08:06:35.157Z,62.81
2018-07-16T08:09:06.885Z,62.58
2018-07-16T08:11:35.634Z,63.15
2018-07-16T08:14:04.364Z,63.77
2018-07-16T08:16:33.115Z,62.75
2018-07-16T08:19:01.790Z,62.89
2018-07-16T08:21:30.499Z,61.87
2018-07-16T08:23:59.694Z,59.98
2018-07-16T08:26:28.702Z,60.16
2018-07-16T08:28:57.600Z,61.33
2018-07-16T08:31:26.405Z,60.91
2018-07-16T08:33:55.133Z,62.01
2018-07-16T08:36:23.840Z,60.45
2018-07-16T08:38:52.612Z,59.78
2018-07-16T08:41:21.507Z,58.93
2018-07-16T08:43:50.230Z,58.34
2018-07-16T08:46:19.214Z,58.43
2018-07-16T08:48:47.870Z,56.79
2018-07-16T08:51:16.617Z,56.82
2018-07-16T08:53:45.401Z,57.57
2018-07-16T08:56:14.989Z,56.58
2018-07-16T08:58:43.788Z,57.30
2018-07-16T09:01:12.461Z,56.86
2018-07-16T09:03:41.256Z,55.08
2018-07-16T09:06:10.025Z,55.29
2018-07-16T09:08:38.693Z,54.88
2018-07-16T09:11:07.901Z,54.54
2018-07-16T09:13:37.164Z,52.64
2018-07-16T09:16:05.768Z,53.97
2018-07-16T09:18:34.468Z,53.86
2018-07-16T09:21:03.146Z,54.55
2018-07-16T09:23:31.868Z,52.62
2018-07-16T09:26:00.555Z,53.40
2018-07-16T09:28:29.244Z,52.77
2018-07-16T09:30:57.913Z,52.41
2018-07-16T09:33:26.617Z,52.29
2018-07-16T09:35:55.975Z,52.93
2018-07-16T09:38:24.712Z,52.04
2018-07-16T09:40:53.466Z,51.18
2018-07-16T09:43:22.206Z,51.29
2018-07-16T09:45:50.935Z,51.75
2018-07-16T09:48:19.685Z,50.71
2018-07-16T09:50:48.469Z,51.13
2018-07-16T09:53:17.255Z,49.41
2018-07-16T09:55:45.893Z,51.64
2018-07-16T09:58:14.584Z,51.16
2018-07-16T10:00:48.913Z,50.32
2018-07-16T10:03:17.657Z,49.59
2018-07-16T10:05:46.373Z,49.93
2018-07-16T10:08:15.148Z,50.75
2018-07-16T10:10:43.957Z,50.83
2018-07-16T10:13:12.685Z,49.61
2018-07-16T10:15:41.526Z,48.30
2018-07-16T10:18:10.253Z,47.60
2018-07-16T10:20:39.002Z,47.36
2018-07-16T10:23:07.684Z,48.26
2018-07-16T10:25:36.399Z,48.67
2018-07-16T10:28:05.158Z,48.94
2018-07-16T10:30:33.905Z,49.42
2018-07-16T10:33:02.625Z,50.20
2018-07-16T10:35:31.337Z,49.56
2018-07-16T10:38:00.157Z,48.91
2018-07-16T10:40:28.938Z,50.11
2018-07-16T10:42:57.670Z,50.78
2018-07-16T10:45:26.418Z,51.74
2018-07-16T10:47:55.112Z,52.19
2018-07-16T10:50:23.762Z,52.15
2018-07-16T10:52:52.487Z,50.48
2018-07-16T10:55:21.326Z,51.05
2018-07-16T10:57:49.944Z,51.70
2018-07-16T11:00:18.640Z,52.59
2018-07-16T11:02:47.406Z,52.44
2018-07-16T11:05:16.146Z,52.32
2018-07-16T11:07:44.966Z,52.19
2018-07-16T11:10:13.700Z,52.24
2018-07-16T11:12:42.415Z,51.83
2018-07-16T11:15:11.134Z,52.99
2018-07-16T11:17:40.898Z,51.70
2018-07-16T11:20:09.977Z,51.03
2018-07-16T11:22:39.466Z,50.82
2018-07-16T11:25:08.690Z,51.61
2018-07-16T11:27:37.970Z,52.60
2018-07-16T11:30:07.588Z,52.86
2018-07-16T11:32:37.285Z,53.39
2018-07-16T11:35:06.461Z,53.81
2018-07-16T11:37:35.249Z,53.07
2018-07-16T11:40:04.139Z,53.15
2018-07-16T11:42:33.299Z,52.64
2018-07-16T11:45:02.276Z,52.19
2018-07-16T11:47:31.014Z,52.91
2018-07-16T11:49:59.775Z,53.72
2018-07-16T11:52:28.878Z,52.95
2018-07-16T11:54:57.709Z,52.47
2018-07-16T11:57:26.523Z,53.14
2018-07-16T11:59:55.214Z,50.96
2018-07-16T12:02:23.992Z,51.07
2018-07-16T12:04:52.780Z,51.19
2018-07-16T12:07:21.485Z,50.79
2018-07-16T12:09:50.229Z,49.59
2018-07-16T12:12:19.042Z,47.68
2018-07-16T12:14:48.452Z,47.94
2018-07-16T12:17:17.157Z,48.42
2018-07-16T12:19:46.504Z,49.14
2018-07-16T12:22:15.350Z,48.64
2018-07-16T12:24:44.217Z,47.59
2018-07-16T12:27:13.033Z,47.13
2018-07-16T12:29:41.825Z,46.56
2018-07-16T12:32:10.689Z,46.43
2018-07-16T12:34:39.437Z,46.82
2018-07-16T12:37:08.184Z,45.42
2018-07-16T12:39:38.079Z,45.31
2018-07-16T12:42:06.785Z,45.33
2018-07-16T12:44:35.543Z,46.33
2018-07-16T12:47:04.465Z,46.58
2018-07-16T12:49:33.254Z,47.15
2018-07-16T12:52:02.105Z,47.28
2018-07-16T12:54:30.951Z,46.38
2018-07-16T12:56:59.712Z,46.04
2018-07-16T12:59:28.587Z,46.36
2018-07-16T13:01:57.282Z,47.37
2018-07-16T13:04:26.678Z,47.33
2018-07-16T13:06:55.442Z,48.42
2018-07-16T13:09:24.242Z,48.15
2018-07-16T13:11:53.080Z,49.18
2018-07-16T13:14:22.029Z,48.76
2018-07-16T13:16:50.981Z,48.68
2018-07-16T13:19:19.858Z,48.74
2018-07-16T13:21:48.717Z,49.04
2018-07-16T13:24:17.501Z,49.55
2018-07-16T13:26:46.249Z,48.10
2018-07-16T13:29:15.059Z,49.28
2018-07-16T13:31:43.952Z,48.98
2018-07-16T13:34:12.733Z,48.26
2018-07-16T13:36:42.553Z,49.16
2018-07-16T13:39:11.716Z,48.83
2018-07-16T13:41:40.590Z,48.81
2018-07-16T13:44:09.354Z,48.80
2018-07-16T13:46:38.396Z,48.99
2018-07-16T13:49:07.641Z,48.62
2018-07-16T13:51:36.660Z,48.12
2018-07-16T13:54:05.779Z,48.07
2018-07-16T13:56:34.627Z,48.00
2018-07-16T13:59:03.330Z,47.41
2018-07-16T14:01:32.394Z,47.17
2018-07-16T14:04:01.272Z,48.26
2018-07-16T14:06:30.048Z,48.72
2018-07-16T14:08:58.814Z,47.95
2018-07-16T14:11:27.576Z,49.42
2018-07-16T14:13:57.029Z,50.06
2018-07-16T14:16:25.871Z,50.62
2018-07-16T14:18:54.685Z,50.30
2018-07-16T14:21:23.555Z,50.49
2018-07-16T14:23:52.404Z,50.35
2018-07-16T14:26:21.156Z,49.27
2018-07-16T14:28:49.988Z,49.21
2018-07-16T14:31:18.829Z,50.15
2018-07-16T14:33:47.618Z,50.17
2018-07-16T14:36:16.386Z,49.79
2018-07-16T14:38:45.233Z,51.24
2018-07-16T14:41:14.012Z,50.73
2018-07-16T14:43:42.804Z,50.58
2018-07-16T14:46:11.589Z,49.91
2018-07-16T14:48:40.468Z,49.50
2018-07-16T14:51:09.247Z,49.54
2018-07-16T14:53:38.175Z,50.36
2018-07-16T14:56:06.874Z,50.59
2018-07-16T14:58:35.660Z,51.55
2018-07-16T15:01:04.379Z,52.65
2018-07-16T15:03:33.257Z,51.16
2018-07-16T15:06:01.998Z,51.40
2018-07-16T15:08:31.004Z,51.91
2018-07-16T15:10:59.752Z,51.11
2018-07-16T15:13:28.655Z,51.43
2018-07-16T15:15:58.254Z,52.28
2018-07-16T15:18:27.220Z,51.93
2018-07-16T15:20:56.546Z,51.35
2018-07-16T15:23:24.960Z,52.30
2018-07-16T15:25:53.817Z,52.74
2018-07-16T15:28:23.008Z,51.25
2018-07-16T15:30:51.788Z,51.42
2018-07-16T15:33:20.816Z,51.43
2018-07-16T15:35:49.682Z,51.04
2018-07-16T15:38:18.504Z,51.50
2018-07-16T15:40:47.790Z,51.75
2018-07-16T15:43:16.560Z,52.33
2018-07-16T15:45:45.576Z,52.89
2018-07-16T15:48:14.505Z,51.49
2018-07-16T15:50:44.294Z,52.39
2018-07-16T15:53:13.290Z,52.68
2018-07-16T15:55:42.175Z,53.63
2018-07-16T15:58:11.166Z,53.49
2018-07-16T16:00:39.928Z,53.28
2018-07-16T16:03:08.659Z,53.31
2018-07-16T16:05:37.475Z,53.67
2018-07-16T16:08:06.177Z,53.35
2018-07-16T16:10:34.880Z,54.42
2018-07-16T16:13:04.096Z,54.34
2018-07-16T16:15:32.854Z,54.60
2018-07-16T16:18:01.877Z,55.08
2018-07-16T16:20:31.001Z,54.59
2018-07-16T16:22:59.803Z,54.64
2018-07-16T16:25:28.468Z,54.70
2018-07-16T16:27:57.193Z,55.31
2018-07-16T16:30:25.903Z,55.37
2018-07-16T16:32:54.678Z,55.14
2018-07-16T16:35:23.385Z,54.44
2018-07-16T16:37:52.121Z,54.55
2018-07-16T16:40:20.805Z,54.90
2018-07-16T16:42:49.508Z,55.19
2018-07-16T16:45:18.224Z,54.81
2018-07-16T16:47:46.967Z,55.52
2018-07-16T16:50:15.927Z,55.11
2018-07-16T16:52:44.771Z,55.84
2018-07-16T16:55:14.165Z,56.15
2018-07-16T16:57:42.905Z,56.19
2018-07-16T17:00:11.736Z,55.74
2018-07-16T17:02:40.465Z,56.57
2018-07-16T17:05:09.311Z,56.04
2018-07-16T17:07:38.045Z,56.32
2018-07-16T17:10:06.765Z,56.02
2018-07-16T17:12:35.774Z,56.37
2018-07-16T17:15:05.033Z,57.76
2018-07-16T17:17:34.957Z,57.95
2018-07-16T17:20:03.810Z,58.21
2018-07-16T17:22:32.643Z,58.32
2018-07-16T17:25:01.880Z,58.53
2018-07-16T17:27:30.598Z,58.38
2018-07-16T17:29:59.515Z,58.75
2018-07-16T17:32:28.289Z,59.18
2018-07-16T17:34:56.994Z,58.61
2018-07-16T17:37:26.022Z,58.58
2018-07-16T17:39:54.717Z,58.50
2018-07-16T17:42:23.945Z,58.61
2018-07-16T17:44:52.640Z,58.62
2018-07-16T17:47:22.364Z,59.09
2018-07-16T17:49:51.088Z,59.13
2018-07-16T17:52:19.923Z,59.81
2018-07-16T17:54:48.570Z,60.17
2018-07-16T17:57:17.241Z,60.81
2018-07-16T17:59:45.988Z,61.00
2018-07-16T18:02:15.171Z,60.88
2018-07-16T18:04:44.007Z,61.58
2018-07-16T18:07:16.961Z,61.68
2018-07-16T18:09:46.198Z,61.96
2018-07-16T18:12:15.025Z,61.92
2018-07-16T18:14:43.813Z,62.83
2018-07-16T18:17:12.521Z,62.90
2018-07-16T18:19:41.459Z,63.06
2018-07-16T18:22:10.161Z,63.21
2018-07-16T18:24:38.946Z,62.88
2018-07-16T18:27:08.844Z,62.78
2018-07-16T18:29:37.547Z,63.23
2018-07-16T18:32:06.712Z,63.37
2018-07-16T18:34:35.455Z,64.40
2018-07-16T18:37:04.336Z,64.77
2018-07-16T18:39:33.077Z,64.63
2018-07-16T18:42:02.821Z,65.19
2018-07-16T18:44:31.548Z,65.29
2018-07-16T18:47:00.298Z,65.99
2018-07-16T18:49:29.057Z,66.11
2018-07-16T18:51:57.940Z,66.48
2018-07-16T18:54:26.764Z,67.99
2018-07-16T18:56:55.859Z,68.31
2018-07-16T18:59:24.635Z,69.15
2018-07-16T19:01:53.764Z,69.31
2018-07-16T19:04:22.447Z,69.37
2018-07-16T19:06:51.548Z,69.26
2018-07-16T19:09:20.214Z,69.31
2018-07-16T19:11:49.064Z,69.23
2018-07-16T19:14:17.949Z,69.82
2018-07-16T19:16:46.880Z,69.90
2018-07-16T19:19:15.706Z,70.20
2018-07-16T19:21:44.444Z,70.16
2018-07-16T19:24:13.285Z,70.18
2018-07-16T19:26:42.105Z,70.71
2018-07-16T19:29:11.710Z,70.81
2018-07-16T19:31:40.549Z,70.97
2018-07-16T19:34:09.497Z,70.57
2018-07-16T19:36:38.461Z,71.00
2018-07-16T19:39:08.771Z,70.79
2018-07-16T19:41:37.519Z,71.19
2018-07-16T19:44:06.267Z,71.35
2018-07-16T19:46:35.089Z,70.88
2018-07-16T19:49:03.881Z,71.27
2018-07-16T19:51:32.766Z,71.69
2018-07-16T19:54:02.012Z,72.60
2018-07-16T19:56:30.774Z,72.39
2018-07-16T19:58:59.811Z,72.52
2018-07-16T20:01:28.523Z,73.00
2018-07-16T20:03:57.396Z,72.96
2018-07-16T20:06:26.349Z,73.11
2018-07-16T20:08:55.101Z,73.52
2018-07-16T20:11:24.390Z,73.33
2018-07-16T20:13:53.277Z,73.56
2018-07-16T20:16:22.136Z,73.61
2018-07-16T20:18:51.035Z,73.68
2018-07-16T20:21:19.899Z,73.65
2018-07-16T20:23:48.762Z,73.75
2018-07-16T20:26:19.231Z,73.99
2018-07-16T20:28:47.956Z,73.85
2018-07-16T20:31:17.618Z,73.72
2018-07-16T20:33:46.440Z,73.78
2018-07-16T20:36:16.790Z,73.83
2018-07-16T20:38:45.684Z,74.16
2018-07-16T20:41:14.591Z,74.30
2018-07-16T20:43:43.260Z,74.52
2018-07-16T20:46:12.043Z,74.75
2018-07-16T20:48:41.136Z,74.88
2018-07-16T20:51:10.348Z,75.06
2018-07-16T20:53:39.131Z,74.86
2018-07-16T20:56:08.278Z,74.68
2018-07-16T20:58:37.198Z,75.22
2018-07-16T21:01:05.980Z,75.07
2018-07-16T21:03:34.726Z,74.83
2018-07-16T21:06:04.007Z,75.23
2018-07-16T21:08:33.301Z,74.86
2018-07-16T21:11:02.258Z,75.14
2018-07-16T21:13:31.724Z,75.29
2018-07-16T21:16:00.837Z,75.52
2018-07-16T21:18:30.399Z,76.10
2018-07-16T21:20:59.424Z,76.00
2018-07-16T21:23:28.441Z,76.06
2018-07-16T21:25:57.528Z,75.84
2018-07-16T21:28:26.700Z,75.58
2018-07-16T21:30:55.387Z,75.62
2018-07-16T21:33:24.700Z,76.12
2018-07-16T21:35:53.570Z,76.22
2018-07-16T21:38:22.292Z,76.36
2018-07-16T21:40:51.005Z,77.16
2018-07-16T21:43:20.414Z,77.45
2018-07-16T21:45:49.133Z,78.19
2018-07-16T21:48:18.202Z,78.39
2018-07-16T21:50:47.176Z,79.40
2018-07-16T21:53:16.093Z,80.25
2018-07-16T21:55:44.860Z,80.58
2018-07-16T21:58:13.583Z,81.18
2018-07-16T22:00:42.719Z,81.82
2018-07-16T22:03:12.295Z,82.02
2018-07-16T22:05:41.630Z,82.12
2018-07-16T22:08:10.493Z,82.47
2018-07-16T22:10:39.369Z,82.92
2018-07-16T22:13:08.383Z,83.14
2018-07-16T22:15:37.124Z,83.53
2018-07-16T22:18:06.015Z,83.50
2018-07-16T22:20:34.974Z,83.52
2018-07-16T22:23:03.835Z,83.67
2018-07-16T22:25:32.592Z,83.60
2018-07-16T22:28:01.412Z,83.94
2018-07-16T22:30:30.305Z,83.77
2018-07-16T22:32:59.058Z,84.02
2018-07-16T22:35:27.923Z,83.89
2018-07-16T22:37:56.695Z,84.19
2018-07-16T22:40:25.798Z,84.40
2018-07-16T22:42:55.070Z,84.40
2018-07-16T22:45:23.835Z,84.66
2018-07-16T22:47:52.600Z,85.05
2018-07-16T22:50:21.369Z,84.79
2018-07-16T22:52:50.145Z,83.79
2018-07-16T22:55:19.267Z,84.48
2018-07-16T22:57:48.289Z,84.47
2018-07-16T23:00:17.409Z,84.24
2018-07-16T23:02:46.296Z,83.70
2018-07-16T23:05:15.211Z,84.11
2018-07-16T23:07:43.960Z,84.17
2018-07-16T23:10:12.843Z,83.98
2018-07-16T23:12:41.657Z,84.16
2018-07-16T23:15:10.516Z,84.69
2018-07-16T23:17:39.194Z,84.04
2018-07-16T23:20:07.990Z,82.72
2018-07-16T23:22:50.811Z,82.67
2018-07-16T23:25:20.141Z,83.51
2018-07-16T23:27:49.344Z,83.80
2018-07-16T23:30:18.101Z,83.95
2018-07-16T23:32:46.969Z,83.66
2018-07-16T23:35:16.886Z,83.86
2018-07-16T23:37:45.653Z,84.69
2018-07-16T23:40:14.452Z,84.05
2018-07-16T23:42:43.162Z,83.16
2018-07-16T23:45:11.866Z,83.34
2018-07-16T23:47:40.601Z,84.03
2018-07-16T23:50:09.614Z,85.01
2018-07-16T23:52:38.390Z,85.10
2018-07-16T23:55:07.152Z,83.90
2018-07-16T23:57:35.922Z,84.35
